Time;durP1;ratioP1;P1;durP2;ratioP2;P2;SDS_P1;SDS_P2;PMS_P1;PMS_P2;Temp;Humidity;BMP_temperature;BMP_pressure;BME280_temperature;BME280_humidity;BME280_pressure;Samples;Min_cycle;Max_cycle;Signal;HPM_P1;HPM_P2
2023/08/05 00:01:06;;;;;;;6.43;2.22;;;16.30;98.80;;;;;;5014522;28;20042;-80
2023/08/05 00:03:31;;;;;;;7.40;2.17;;;16.30;98.90;;;;;;5013093;28;20076;-80
2023/08/05 00:05:57;;;;;;;7.03;2.50;;;16.30;99.10;;;;;;5014231;28;20045;-80
2023/08/05 00:08:24;;;;;;;7.10;2.40;;;16.30;99.20;;;;;;5014278;28;20046;-80
2023/08/05 00:10:50;;;;;;;5.30;2.30;;;16.30;99.40;;;;;;5014599;28;20046;-80
2023/08/05 00:13:15;;;;;;;5.30;2.15;;;16.20;99.30;;;;;;5014348;28;20510;-79
2023/08/05 00:15:41;;;;;;;5.00;2.20;;;16.20;99.20;;;;;;5013173;28;20124;-80
2023/08/05 00:18:07;;;;;;;5.03;2.38;;;16.20;99.00;;;;;;5014120;28;20038;-79
2023/08/05 00:20:33;;;;;;;6.60;2.40;;;16.20;99.20;;;;;;5014087;28;20088;-80
2023/08/05 00:22:58;;;;;;;4.32;2.50;;;16.10;99.10;;;;;;5013860;28;20116;-80
2023/08/05 00:25:24;;;;;;;4.88;2.40;;;16.10;99.30;;;;;;5012594;28;20042;-79
2023/08/05 00:27:49;;;;;;;5.38;2.53;;;16.10;99.20;;;;;;5012887;28;20042;-79
2023/08/05 00:30:15;;;;;;;4.50;2.33;;;16.10;99.30;;;;;;5013738;28;20399;-78
2023/08/05 00:32:41;;;;;;;4.60;2.40;;;16.00;99.40;;;;;;5013578;28;20040;-79
2023/08/05 00:35:07;;;;;;;5.25;2.72;;;16.00;99.30;;;;;;5012485;28;20076;-80
2023/08/05 00:37:33;;;;;;;5.95;2.80;;;16.00;99.30;;;;;;5013771;28;20487;-79
2023/08/05 00:40:00;;;;;;;5.45;2.55;;;16.00;99.40;;;;;;5013819;28;20049;-80
2023/08/05 00:42:27;;;;;;;5.85;2.58;;;16.00;99.40;;;;;;5013442;28;20057;-79
2023/08/05 00:44:52;;;;;;;5.97;2.80;;;16.00;99.40;;;;;;5005372;28;20045;-79
2023/08/05 00:47:19;;;;;;;5.47;2.55;;;16.00;99.50;;;;;;5012175;28;20046;-80
2023/08/05 00:49:45;;;;;;;4.75;2.40;;;16.00;99.60;;;;;;5013389;28;20071;-79
2023/08/05 00:52:13;;;;;;;6.93;2.45;;;15.90;99.20;;;;;;5012796;28;20180;-80
2023/08/05 00:54:39;;;;;;;5.80;2.40;;;15.90;98.90;;;;;;5012437;28;20124;-80
2023/08/05 00:57:06;;;;;;;5.28;2.20;;;15.90;98.90;;;;;;5013378;28;20054;-80
2023/08/05 00:59:31;;;;;;;5.65;2.45;;;15.90;98.90;;;;;;5013203;28;20091;-80
2023/08/05 01:01:57;;;;;;;9.02;2.72;;;15.90;98.80;;;;;;5011329;28;20049;-79
2023/08/05 01:04:23;;;;;;;6.20;2.63;;;15.80;98.70;;;;;;5011478;28;20053;-80
2023/08/05 01:06:50;;;;;;;6.15;2.58;;;15.80;99.00;;;;;;5013209;28;20045;-80
2023/08/05 01:09:15;;;;;;;5.68;2.97;;;15.80;99.20;;;;;;5013518;28;20100;-80
2023/08/05 01:11:41;;;;;;;5.25;2.47;;;15.90;99.40;;;;;;5012675;28;20038;-80
2023/08/05 01:14:07;;;;;;;5.95;2.53;;;15.90;99.70;;;;;;5012678;28;20497;-80
2023/08/05 01:16:32;;;;;;;5.05;2.45;;;15.90;99.80;;;;;;5012957;28;20053;-80
2023/08/05 01:19:00;;;;;;;4.65;2.70;;;15.90;99.80;;;;;;5013168;28;20038;-80
2023/08/05 01:21:42;;;;;;;4.57;2.50;;;15.90;99.90;;;;;;5013416;28;20115;-80
2023/08/05 01:24:19;;;;;;;4.75;2.70;;;15.90;99.80;;;;;;5012722;28;20073;-80
2023/08/05 01:26:46;;;;;;;4.65;2.60;;;15.90;99.80;;;;;;5013149;28;20073;-80
2023/08/05 01:29:11;;;;;;;6.35;2.58;;;15.90;99.90;;;;;;5012662;28;20100;-80
2023/08/05 01:31:37;;;;;;;5.53;2.60;;;15.90;99.80;;;;;;5012936;28;20488;-80
2023/08/05 01:34:04;;;;;;;7.28;2.70;;;15.90;99.80;;;;;;5013160;28;20034;-80
2023/08/05 01:36:31;;;;;;;5.18;2.60;;;15.90;99.90;;;;;;5012168;28;20045;-80
2023/08/05 01:38:56;;;;;;;5.18;2.92;;;15.90;99.80;;;;;;5013105;28;20042;-80
2023/08/05 01:41:22;;;;;;;7.00;2.65;;;15.90;99.90;;;;;;5013162;28;20053;-80
2023/08/05 01:43:48;;;;;;;4.38;2.20;;;15.90;99.80;;;;;;5012471;28;20052;-78
2023/08/05 01:46:13;;;;;;;4.90;2.20;;;15.80;99.70;;;;;;5012443;28;20042;-79
2023/08/05 01:48:39;;;;;;;4.82;2.70;;;15.80;99.70;;;;;;5011803;28;20136;-79
2023/08/05 01:51:04;;;;;;;6.55;2.78;;;15.80;99.90;;;;;;5012289;28;20476;-80
2023/08/05 01:53:30;;;;;;;5.47;2.58;;;15.80;99.70;;;;;;5013197;28;20038;-79
2023/08/05 01:55:56;;;;;;;5.70;2.78;;;15.70;99.80;;;;;;5012678;28;20373;-79
2023/08/05 01:58:21;;;;;;;4.82;2.83;;;15.70;99.90;;;;;;5012445;28;20042;-79
2023/08/05 02:00:50;;;;;;;5.20;2.50;;;15.70;99.90;;;;;;5012154;28;20033;-79
2023/08/05 02:03:16;;;;;;;5.32;2.40;;;15.70;99.90;;;;;;5013264;28;20110;-79
2023/08/05 02:05:42;;;;;;;6.80;2.50;;;15.70;99.90;;;;;;5012617;28;20089;-80
2023/08/05 02:08:07;;;;;;;4.88;2.78;;;15.70;99.90;;;;;;5014469;28;20121;-80
2023/08/05 02:10:33;;;;;;;6.50;2.65;;;15.60;99.90;;;;;;5016335;28;20056;-79
2023/08/05 02:12:59;;;;;;;5.00;2.65;;;15.60;99.90;;;;;;5016761;28;20089;-80
2023/08/05 02:15:26;;;;;;;7.30;2.80;;;15.60;99.90;;;;;;5015908;28;20041;-79
2023/08/05 02:17:52;;;;;;;5.93;2.58;;;15.60;99.90;;;;;;5016817;28;20053;-80
2023/08/05 02:20:17;;;;;;;5.22;2.28;;;15.50;99.70;;;;;;5016234;28;20095;-80
2023/08/05 02:22:43;;;;;;;4.93;2.95;;;15.40;99.70;;;;;;5016166;28;20125;-79
2023/08/05 02:25:09;;;;;;;4.63;2.45;;;15.40;99.80;;;;;;5015820;28;20046;-79
2023/08/05 02:27:34;;;;;;;4.50;2.45;;;15.40;99.50;;;;;;4997804;28;20391;-79
2023/08/05 02:30:00;;;;;;;4.68;2.25;;;15.40;99.30;;;;;;5015576;28;20044;-80
2023/08/05 02:32:25;;;;;;;6.47;2.60;;;15.30;99.30;;;;;;5016138;28;20443;-80
2023/08/05 02:34:51;;;;;;;4.93;2.60;;;15.30;99.60;;;;;;5015685;28;20140;-79
2023/08/05 02:37:17;;;;;;;4.97;2.78;;;15.20;99.70;;;;;;5015760;28;20081;-80
2023/08/05 02:39:42;;;;;;;4.35;2.40;;;15.20;99.60;;;;;;5016079;28;20116;-79
2023/08/05 02:42:08;;;;;;;4.68;2.42;;;15.20;99.70;;;;;;5016357;28;20403;-80
2023/08/05 02:44:33;;;;;;;5.45;2.50;;;15.10;99.40;;;;;;5014660;28;20050;-79
2023/08/05 02:46:59;;;;;;;4.57;2.15;;;15.10;99.20;;;;;;5015823;28;20042;-79
2023/08/05 02:49:24;;;;;;;4.03;2.20;;;15.00;99.00;;;;;;5014637;28;20050;-79
2023/08/05 02:51:50;;;;;;;4.63;2.40;;;15.00;99.00;;;;;;5013510;28;20046;-79
2023/08/05 02:54:16;;;;;;;5.40;2.50;;;15.00;98.90;;;;;;5016276;28;20054;-80
2023/08/05 02:56:42;;;;;;;5.32;2.70;;;14.90;98.70;;;;;;5014588;28;20057;-80
2023/08/05 02:59:08;;;;;;;4.22;2.63;;;14.90;99.20;;;;;;5015360;28;20049;-79
2023/08/05 03:01:35;;;;;;;6.07;2.53;;;14.90;99.20;;;;;;5015134;28;20058;-79
2023/08/05 03:04:02;;;;;;;6.72;2.38;;;14.90;99.20;;;;;;5015765;28;20121;-80
2023/08/05 03:06:28;;;;;;;5.28;2.50;;;14.90;99.10;;;;;;5013992;28;20095;-80
2023/08/05 03:08:53;;;;;;;4.60;2.47;;;14.90;99.00;;;;;;5015382;28;20042;-79
2023/08/05 03:11:20;;;;;;;5.38;2.40;;;14.90;99.00;;;;;;5015057;28;20053;-79
2023/08/05 03:13:45;;;;;;;5.03;2.63;;;14.90;99.10;;;;;;5019060;28;20046;-80
2023/08/05 03:16:12;;;;;;;5.80;2.80;;;14.90;99.00;;;;;;5014903;28;20060;-80
2023/08/05 03:18:38;;;;;;;5.82;2.45;;;14.80;99.30;;;;;;5014009;28;20038;-80
2023/08/05 03:21:04;;;;;;;7.10;2.20;;;14.80;99.00;;;;;;5015219;28;20060;-80
2023/08/05 03:23:30;;;;;;;5.43;2.70;;;14.80;98.90;;;;;;5015123;28;20057;-79
2023/08/05 03:25:55;;;;;;;5.50;2.70;;;14.80;99.10;;;;;;5015525;28;20385;-79
2023/08/05 03:28:21;;;;;;;7.40;2.90;;;14.80;99.30;;;;;;5014775;28;20045;-79
2023/08/05 03:30:46;;;;;;;3.70;2.28;;;14.80;99.70;;;;;;5014673;28;20077;-80
2023/08/05 03:33:12;;;;;;;4.47;2.60;;;14.80;99.80;;;;;;5014718;28;20037;-80
2023/08/05 03:35:44;;;;;;;4.95;2.35;;;14.80;99.90;;;;;;5014673;28;20109;-80
2023/08/05 03:38:10;;;;;;;4.95;2.60;;;14.90;99.90;;;;;;5014980;28;20038;-79
2023/08/05 03:40:36;;;;;;;5.50;2.60;;;14.80;99.90;;;;;;4997256;28;20045;-79
2023/08/05 03:43:03;;;;;;;4.90;2.50;;;14.80;99.90;;;;;;5013428;28;20096;-80
2023/08/05 03:45:29;;;;;;;5.20;2.60;;;14.90;99.90;;;;;;5014079;28;20492;-79
2023/08/05 03:47:55;;;;;;;6.65;2.60;;;14.80;99.90;;;;;;5014515;28;20081;-80
2023/08/05 03:50:21;;;;;;;4.43;2.60;;;14.80;99.80;;;;;;5014439;28;20081;-80
2023/08/05 03:52:48;;;;;;;4.60;2.53;;;14.80;99.90;;;;;;5014078;28;20085;-80
2023/08/05 03:55:14;;;;;;;4.05;2.42;;;14.80;99.90;;;;;;5012965;28;20034;-79
2023/08/05 03:57:41;;;;;;;4.90;2.63;;;14.80;99.90;;;;;;5013521;28;20092;-80
2023/08/05 04:00:11;;;;;;;5.75;2.88;;;14.80;99.90;;;;;;5012540;28;20117;-79
2023/08/05 04:02:37;;;;;;;5.97;2.58;;;14.90;99.90;;;;;;5012144;28;20038;-80
2023/08/05 04:05:04;;;;;;;4.68;2.45;;;14.80;99.90;;;;;;5013805;28;20045;-79
2023/08/05 04:07:30;;;;;;;4.68;2.40;;;14.80;99.90;;;;;;4999370;28;20049;-79
2023/08/05 04:09:56;;;;;;;5.13;2.10;;;14.80;99.90;;;;;;5012548;28;20057;-80
2023/08/05 04:12:22;;;;;;;5.03;2.50;;;14.80;99.60;;;;;;5013569;28;20042;-79
2023/08/05 04:14:50;;;;;;;4.72;2.40;;;14.80;99.40;;;;;;5013803;28;20112;-79
2023/08/05 04:17:16;;;;;;;5.75;2.60;;;14.80;99.40;;;;;;5013841;28;20475;-79
2023/08/05 04:19:46;;;;;;;5.53;2.20;;;14.80;99.20;;;;;;5013533;28;20120;-80
2023/08/05 04:22:12;;;;;;;4.72;2.33;;;14.80;99.10;;;;;;5013893;28;20050;-80
2023/08/05 04:24:39;;;;;;;6.28;2.50;;;14.80;99.00;;;;;;5014119;28;20056;-80
2023/08/05 04:27:05;;;;;;;5.38;2.70;;;14.80;99.00;;;;;;5013492;28;20058;-79
2023/08/05 04:29:30;;;;;;;6.50;2.65;;;14.80;99.00;;;;;;5013299;28;20059;-80
2023/08/05 04:31:56;;;;;;;5.28;2.45;;;14.80;99.00;;;;;;5013418;28;20080;-80
2023/08/05 04:34:22;;;;;;;4.47;2.40;;;14.80;99.00;;;;;;5013838;28;20069;-80
2023/08/05 04:36:52;;;;;;;5.20;2.50;;;14.80;99.10;;;;;;5012922;28;20046;-79
2023/08/05 04:39:19;;;;;;;6.18;2.17;;;14.80;99.10;;;;;;5013124;28;20053;-80
2023/08/05 04:41:45;;;;;;;6.30;2.40;;;14.80;99.00;;;;;;5013766;28;20050;-79
2023/08/05 04:44:11;;;;;;;4.30;2.20;;;14.80;99.00;;;;;;5013006;28;20046;-80
2023/08/05 04:46:37;;;;;;;4.82;2.28;;;14.80;98.90;;;;;;5013627;28;20045;-80
2023/08/05 04:49:05;;;;;;;5.10;2.42;;;14.80;99.00;;;;;;5013680;28;20042;-79
2023/08/05 04:51:30;;;;;;;5.22;2.40;;;14.80;99.00;;;;;;5012600;28;20040;-80
2023/08/05 04:53:56;;;;;;;4.85;2.40;;;14.80;99.20;;;;;;5013681;28;20041;-79
2023/08/05 04:56:25;;;;;;;5.45;2.60;;;14.80;99.20;;;;;;5011876;28;20045;-79
2023/08/05 04:58:51;;;;;;;5.25;2.28;;;14.80;99.40;;;;;;5013622;28;20052;-79
2023/08/05 05:01:17;;;;;;;4.35;2.20;;;14.80;99.20;;;;;;5013177;28;20128;-80
2023/08/05 05:03:46;;;;;;;5.00;2.25;;;14.80;99.10;;;;;;5013422;28;20450;-79
2023/08/05 05:06:12;;;;;;;4.35;2.13;;;14.80;99.50;;;;;;5013365;28;20057;-80
2023/08/05 05:08:37;;;;;;;6.03;2.60;;;14.80;99.10;;;;;;5012519;28;20038;-80
2023/08/05 05:11:03;;;;;;;5.45;2.40;;;14.80;99.20;;;;;;5011636;28;20045;-80
2023/08/05 05:13:29;;;;;;;4.50;2.10;;;14.80;99.00;;;;;;5013260;28;20125;-80
2023/08/05 05:15:54;;;;;;;4.25;2.30;;;14.80;98.90;;;;;;5012439;28;20052;-80
2023/08/05 05:18:20;;;;;;;4.53;2.35;;;14.80;98.90;;;;;;5013619;28;20054;-80
2023/08/05 05:20:53;;;;;;;4.60;2.30;;;14.80;98.90;;;;;;5013061;28;20551;-79
2023/08/05 05:23:19;;;;;;;5.03;2.28;;;14.80;98.80;;;;;;5017325;28;20056;-80
2023/08/05 05:25:45;;;;;;;6.07;2.20;;;14.80;98.80;;;;;;5015524;28;20053;-80
2023/08/05 05:28:10;;;;;;;4.25;2.30;;;14.80;98.80;;;;;;5013077;28;20061;-80
2023/08/05 05:30:36;;;;;;;5.03;2.08;;;14.80;98.90;;;;;;5012756;28;20053;-79
2023/08/05 05:33:02;;;;;;;4.78;2.45;;;14.80;99.00;;;;;;5013298;28;20476;-79
2023/08/05 05:35:30;;;;;;;7.53;2.85;;;14.80;99.00;;;;;;5012645;28;20045;-80
2023/08/05 05:37:56;;;;;;;4.93;2.22;;;14.80;99.10;;;;;;5013154;28;20074;-80
2023/08/05 05:40:22;;;;;;;6.43;2.22;;;14.90;99.40;;;;;;5013106;28;20073;-79
2023/08/05 05:42:51;;;;;;;5.85;2.45;;;14.90;99.50;;;;;;5013465;28;20057;-79
2023/08/05 05:45:17;;;;;;;5.32;2.70;;;14.90;99.60;;;;;;5014736;28;20591;-79
2023/08/05 05:47:44;;;;;;;5.28;2.50;;;14.90;99.90;;;;;;5015851;28;20400;-80
2023/08/05 05:50:10;;;;;;;4.82;2.28;;;15.00;99.80;;;;;;5015264;28;20054;-79
2023/08/05 05:52:38;;;;;;;6.13;2.50;;;15.00;99.70;;;;;;5015533;28;20034;-80
2023/08/05 05:55:11;;;;;;;5.93;2.28;;;15.00;99.60;;;;;;5015463;28;20091;-79
2023/08/05 05:57:36;;;;;;;5.03;2.60;;;14.90;99.60;;;;;;5014711;28;20049;-80
2023/08/05 06:00:04;;;;;;;6.68;2.55;;;15.00;99.50;;;;;;5015306;28;20046;-80
2023/08/05 06:02:30;;;;;;;7.22;2.78;;;15.00;99.80;;;;;;5015135;28;20042;-79
2023/08/05 06:04:56;;;;;;;4.28;2.40;;;15.00;99.60;;;;;;5015207;28;20044;-79
2023/08/05 06:07:22;;;;;;;5.68;3.40;;;15.00;99.40;;;;;;4997553;28;20124;-79
2023/08/05 06:09:48;;;;;;;7.45;3.50;;;15.00;99.40;;;;;;5014538;28;20046;-80
2023/08/05 06:12:17;;;;;;;8.82;3.30;;;15.10;99.50;;;;;;5015043;28;20042;-78
2023/08/05 06:14:43;;;;;;;6.57;3.25;;;15.10;99.60;;;;;;5014039;28;20045;-79
2023/08/05 06:17:09;;;;;;;4.47;2.40;;;15.10;99.80;;;;;;5014663;28;20511;-79
2023/08/05 06:19:34;;;;;;;6.75;2.70;;;15.10;99.90;;;;;;5013926;28;20071;-79
2023/08/05 06:22:00;;;;;;;5.53;2.70;;;15.20;99.90;;;;;;5013988;28;20058;-79
2023/08/05 06:24:25;;;;;;;5.45;2.70;;;15.20;99.90;;;;;;5015123;28;20056;-79
2023/08/05 06:26:51;;;;;;;6.32;2.60;;;15.20;99.80;;;;;;5013904;28;20038;-80
2023/08/05 06:29:16;;;;;;;5.60;2.55;;;15.30;99.90;;;;;;5014980;28;20045;-79
2023/08/05 06:31:42;;;;;;;8.18;2.65;;;15.30;99.90;;;;;;5013306;28;20100;-79
2023/08/05 06:34:08;;;;;;;7.07;2.60;;;15.30;99.90;;;;;;5013171;28;20488;-80
2023/08/05 06:36:33;;;;;;;6.20;2.35;;;15.40;99.90;;;;;;5013817;28;20048;-80
2023/08/05 06:38:59;;;;;;;6.07;2.45;;;15.40;99.90;;;;;;5013787;28;20041;-80
2023/08/05 06:41:24;;;;;;;7.15;2.60;;;15.40;99.90;;;;;;4976204;28;1099541;-80
2023/08/05 06:43:50;;;;;;;5.70;2.55;;;15.50;99.90;;;;;;5015982;28;20056;-80
2023/08/05 06:46:16;;;;;;;6.10;2.33;;;15.60;99.90;;;;;;5015517;28;20395;-79
2023/08/05 06:48:41;;;;;;;5.80;2.55;;;15.60;99.90;;;;;;5016324;28;20462;-80
2023/08/05 06:51:07;;;;;;;5.88;2.30;;;15.70;99.90;;;;;;5015668;28;20042;-79
2023/08/05 06:53:33;;;;;;;6.97;2.17;;;15.70;99.90;;;;;;5014846;28;20052;-80
2023/08/05 06:56:03;;;;;;;6.93;2.42;;;15.80;99.90;;;;;;5016342;28;20050;-80
2023/08/05 06:58:28;;;;;;;7.57;2.80;;;15.80;99.90;;;;;;5015425;28;20042;-80
2023/08/05 07:00:55;;;;;;;5.93;2.20;;;15.80;99.80;;;;;;5015956;28;20084;-80
2023/08/05 07:03:22;;;;;;;5.80;2.22;;;15.90;99.80;;;;;;5015343;28;20412;-80
2023/08/05 07:05:48;;;;;;;5.63;2.28;;;15.90;99.70;;;;;;5015421;28;20085;-80
2023/08/05 07:08:14;;;;;;;8.63;2.50;;;16.00;99.80;;;;;;5015252;28;20113;-79
2023/08/05 07:10:40;;;;;;;5.80;2.15;;;16.00;99.70;;;;;;5015129;28;20050;-80
2023/08/05 07:13:06;;;;;;;7.55;2.60;;;16.00;99.60;;;;;;5013926;28;20550;-80
2023/08/05 07:15:38;;;;;;;4.05;2.10;;;16.10;99.50;;;;;;5013471;28;20069;-80
2023/08/05 07:18:05;;;;;;;6.15;2.60;;;16.10;99.50;;;;;;5013450;28;20042;-80
2023/08/05 07:20:31;;;;;;;8.23;2.70;;;16.10;99.60;;;;;;5014269;28;20076;-79
2023/08/05 07:22:56;;;;;;;5.60;2.40;;;16.10;99.60;;;;;;5025310;28;20041;-80
2023/08/05 07:25:22;;;;;;;7.18;2.90;;;16.10;99.70;;;;;;5032609;28;20047;-79
2023/08/05 07:27:47;;;;;;;5.95;2.72;;;16.20;99.90;;;;;;5013234;28;20041;-79
2023/08/05 07:30:13;;;;;;;7.75;2.50;;;16.20;99.90;;;;;;5014306;28;20111;-79
2023/08/05 07:32:39;;;;;;;7.47;2.60;;;16.30;99.80;;;;;;5015064;28;20129;-80
2023/08/05 07:35:07;;;;;;;6.78;2.58;;;16.30;99.80;;;;;;5014000;28;20455;-80
2023/08/05 07:37:34;;;;;;;6.75;2.72;;;16.40;99.90;;;;;;5013823;28;20046;-80
2023/08/05 07:40:00;;;;;;;7.55;2.67;;;16.40;99.80;;;;;;5015162;28;20465;-80
2023/08/05 07:42:27;;;;;;;8.32;2.70;;;16.40;99.70;;;;;;5013711;28;20133;-80
2023/08/05 07:44:53;;;;;;;8.40;2.90;;;16.40;99.60;;;;;;5014067;28;20438;-80
2023/08/05 07:47:19;;;;;;;8.85;2.92;;;16.50;99.70;;;;;;5014734;28;20038;-80
2023/08/05 07:49:45;;;;;;;4.88;2.20;;;16.50;99.70;;;;;;5014427;28;20053;-79
2023/08/05 07:52:11;;;;;;;5.97;2.88;;;16.60;99.60;;;;;;5014352;28;20392;-79
2023/08/05 07:54:36;;;;;;;6.90;2.60;;;16.60;99.70;;;;;;5013664;28;20045;-80
2023/08/05 07:57:03;;;;;;;7.97;2.72;;;16.60;99.60;;;;;;5016676;28;20048;-80
2023/08/05 07:59:30;;;;;;;7.78;2.80;;;16.70;99.60;;;;;;5012706;28;20111;-80
2023/08/05 08:01:56;;;;;;;6.93;2.40;;;16.70;99.40;;;;;;5014549;28;20050;-80
2023/08/05 08:04:21;;;;;;;7.93;2.90;;;16.80;99.30;;;;;;5015315;28;20046;-79
2023/08/05 08:06:48;;;;;;;7.38;2.55;;;16.80;99.20;;;;;;5013812;28;20045;-80
2023/08/05 08:09:14;;;;;;;6.72;2.47;;;16.80;99.20;;;;;;5014680;28;20054;-80
2023/08/05 08:11:40;;;;;;;9.07;2.83;;;16.80;99.20;;;;;;5014409;28;20515;-80
2023/08/05 08:14:06;;;;;;;8.55;2.78;;;16.90;99.20;;;;;;5014664;28;20458;-80
2023/08/05 08:16:32;;;;;;;8.43;2.65;;;16.90;99.30;;;;;;5012579;28;20129;-80
2023/08/05 08:18:58;;;;;;;6.80;2.58;;;16.90;99.30;;;;;;5013559;28;20038;-80
2023/08/05 08:21:24;;;;;;;8.40;2.80;;;16.90;99.50;;;;;;5012985;28;20511;-80
2023/08/05 08:23:49;;;;;;;8.90;3.08;;;17.00;99.50;;;;;;5015230;28;20054;-80
2023/08/05 08:26:15;;;;;;;7.55;2.72;;;17.00;99.40;;;;;;5012285;28;20088;-80
2023/08/05 08:28:41;;;;;;;5.15;2.22;;;17.00;99.30;;;;;;5013617;28;21205;-80
2023/08/05 08:31:06;;;;;;;6.20;2.33;;;17.00;99.20;;;;;;5013949;28;20050;-80
2023/08/05 08:33:32;;;;;;;6.57;2.85;;;17.10;99.30;;;;;;5014642;28;20041;-80
2023/08/05 08:35:58;;;;;;;6.25;2.60;;;17.20;99.50;;;;;;5013340;28;20030;-80
2023/08/05 08:38:24;;;;;;;5.78;2.63;;;17.20;99.40;;;;;;5013340;28;20389;-79
2023/08/05 08:40:51;;;;;;;8.30;2.60;;;17.30;99.30;;;;;;5015251;28;20380;-79
2023/08/05 08:43:20;;;;;;;9.10;2.60;;;17.30;99.10;;;;;;5013056;28;20045;-80
2023/08/05 08:45:48;;;;;;;5.15;2.33;;;17.40;98.90;;;;;;5014081;28;20037;-80
2023/08/05 08:48:15;;;;;;;5.78;2.42;;;17.40;98.50;;;;;;4996416;28;20411;-80
2023/08/05 08:50:42;;;;;;;7.00;2.30;;;17.50;98.40;;;;;;5013643;28;20046;-80
2023/08/05 08:53:10;;;;;;;6.15;2.20;;;17.50;98.20;;;;;;4999613;28;20042;-80
2023/08/05 08:55:43;;;;;;;5.90;2.00;;;17.60;97.70;;;;;;5013128;28;20392;-80
2023/08/05 08:58:09;;;;;;;5.57;2.10;;;17.60;97.60;;;;;;4994316;28;20051;-80
2023/08/05 09:00:37;;;;;;;8.02;2.30;;;17.60;97.80;;;;;;5002694;28;20485;-80
2023/08/05 09:03:04;;;;;;;7.85;2.38;;;17.60;97.70;;;;;;4996377;28;20046;-80
2023/08/05 09:05:46;;;;;;;4.70;2.22;;;17.70;97.70;;;;;;5010740;28;20062;-81
2023/08/05 09:08:12;;;;;;;6.32;2.50;;;17.70;97.80;;;;;;4996911;28;20097;-80
2023/08/05 09:10:38;;;;;;;5.63;2.08;;;17.70;97.70;;;;;;4998021;28;20034;-80
2023/08/05 09:13:08;;;;;;;6.85;2.35;;;17.80;97.70;;;;;;5007290;28;20460;-80
2023/08/05 09:15:36;;;;;;;5.50;2.40;;;17.80;97.40;;;;;;5001433;28;20058;-81
2023/08/05 09:18:07;;;;;;;5.00;2.35;;;17.90;97.10;;;;;;5013180;28;20048;-80
2023/08/05 09:20:34;;;;;;;9.63;2.20;;;18.00;96.90;;;;;;5000099;28;20137;-81
2023/08/05 09:23:05;;;;;;;5.70;2.20;;;18.00;96.90;;;;;;5013301;28;20054;-81
2023/08/05 09:25:31;;;;;;;5.05;1.90;;;18.10;97.00;;;;;;5006902;28;20046;-81
2023/08/05 09:27:59;;;;;;;5.47;2.30;;;18.20;96.90;;;;;;5003339;28;20431;-81
2023/08/05 09:30:25;;;;;;;4.57;1.88;;;18.30;97.00;;;;;;5009815;28;20124;-82
2023/08/05 09:32:52;;;;;;;4.15;1.88;;;18.40;96.60;;;;;;5002367;28;20483;-81
2023/08/05 09:35:18;;;;;;;4.55;1.90;;;18.40;96.50;;;;;;5011841;28;20046;-81
2023/08/05 09:37:46;;;;;;;5.75;2.13;;;18.50;96.70;;;;;;5010405;28;20495;-81
2023/08/05 09:40:24;;;;;;;5.43;1.98;;;18.60;96.40;;;;;;4999809;28;20046;-81
2023/08/05 09:42:59;;;;;;;6.25;1.92;;;18.70;96.30;;;;;;5007228;28;20419;-81
2023/08/05 09:45:25;;;;;;;4.82;1.75;;;18.70;95.70;;;;;;5004594;28;20129;-81
2023/08/05 09:48:03;;;;;;;4.35;1.80;;;18.80;95.50;;;;;;4993788;28;20081;-81
2023/08/05 09:50:30;;;;;;;5.97;1.90;;;18.90;95.60;;;;;;5008290;28;20534;-81
2023/08/05 09:53:00;;;;;;;5.85;2.15;;;18.90;95.60;;;;;;5010739;28;20054;-81
2023/08/05 09:55:28;;;;;;;4.35;1.80;;;19.00;95.50;;;;;;5012683;28;20065;-80
2023/08/05 09:57:54;;;;;;;4.65;1.88;;;19.10;95.30;;;;;;5012674;28;20046;-81
2023/08/05 10:00:21;;;;;;;5.00;1.90;;;19.20;94.80;;;;;;5011476;28;20180;-81
2023/08/05 10:02:47;;;;;;;5.45;1.90;;;19.20;95.00;;;;;;5000426;28;20050;-80
2023/08/05 10:05:13;;;;;;;7.32;1.83;;;19.20;94.70;;;;;;4996540;28;20034;-81
2023/08/05 10:07:40;;;;;;;4.32;2.00;;;19.30;94.50;;;;;;5023615;28;20060;-81
2023/08/05 10:10:09;;;;;;;4.13;1.70;;;19.40;94.70;;;;;;5003868;28;20504;-81
2023/08/05 10:12:43;;;;;;;4.28;1.60;;;19.40;94.50;;;;;;5007275;28;20042;-81
2023/08/05 10:15:13;;;;;;;4.65;1.63;;;19.40;94.60;;;;;;5003642;28;20077;-81
2023/08/05 10:17:41;;;;;;;4.68;1.80;;;19.50;94.90;;;;;;4998871;28;20034;-81
2023/08/05 10:20:11;;;;;;;5.88;1.80;;;19.50;94.70;;;;;;4983789;28;20034;-81
2023/08/05 10:22:38;;;;;;;9.32;2.05;;;19.60;94.70;;;;;;4992285;28;20526;-81
2023/08/05 10:25:04;;;;;;;5.70;1.95;;;19.60;94.90;;;;;;4995370;28;20117;-81
2023/08/05 10:27:40;;;;;;;7.47;2.20;;;19.60;94.70;;;;;;4995972;28;20138;-81
2023/08/05 10:30:08;;;;;;;6.22;1.90;;;19.70;95.00;;;;;;5014355;28;20109;-81
2023/08/05 10:32:35;;;;;;;7.55;2.13;;;19.80;94.70;;;;;;5013085;28;20096;-81
2023/08/05 10:35:26;;;;;;;5.55;1.92;;;19.80;94.90;;;;;;5013626;28;20092;-81
2023/08/05 10:38:06;;;;;;;4.47;1.80;;;19.90;95.50;;;;;;5024904;28;20065;-80
2023/08/05 10:40:37;;;;;;;4.03;1.60;;;20.00;95.60;;;;;;5020139;28;20054;-81
2023/08/05 10:43:05;;;;;;;3.47;1.60;;;20.00;95.50;;;;;;4959835;28;20050;-80
2023/08/05 10:45:33;;;;;;;3.55;1.67;;;20.10;94.90;;;;;;4962522;28;20065;-80
2023/08/05 10:48:13;;;;;;;5.40;1.90;;;20.20;94.60;;;;;;4956668;28;20057;-81
2023/08/05 10:50:41;;;;;;;5.32;1.83;;;20.20;94.00;;;;;;4958000;28;20051;-81
2023/08/05 10:53:09;;;;;;;6.35;1.85;;;20.20;94.40;;;;;;4956790;28;20520;-81
2023/08/05 10:55:49;;;;;;;4.93;1.90;;;20.20;93.90;;;;;;4957322;28;20039;-81
2023/08/05 10:58:21;;;;;;;5.05;1.80;;;20.30;94.20;;;;;;4961637;28;20078;-81
2023/08/05 11:01:17;;;;;;;5.68;1.70;;;20.30;94.20;;;;;;4966316;28;20051;-81
2023/08/05 11:03:50;;;;;;;4.95;2.08;;;20.30;94.00;;;;;;4968460;28;20069;-80
2023/08/05 11:06:22;;;;;;;4.07;1.90;;;20.40;94.50;;;;;;4976220;28;20039;-81
2023/08/05 11:08:51;;;;;;;7.47;2.10;;;20.40;94.50;;;;;;4962381;28;20047;-81
2023/08/05 11:11:18;;;;;;;4.47;1.88;;;20.40;93.80;;;;;;4965213;28;20059;-81
2023/08/05 11:13:46;;;;;;;6.78;2.17;;;20.50;93.90;;;;;;4968382;28;20069;-81
2023/08/05 11:16:17;;;;;;;5.13;1.85;;;20.50;93.70;;;;;;4974359;28;21525;-80
2023/08/05 11:18:46;;;;;;;4.70;2.05;;;20.50;93.40;;;;;;4975645;28;20496;-81
2023/08/05 11:21:15;;;;;;;4.75;2.25;;;20.50;93.80;;;;;;4974454;28;20060;-80
2023/08/05 11:23:42;;;;;;;4.28;2.10;;;20.50;93.50;;;;;;4974572;28;20077;-80
2023/08/05 11:26:09;;;;;;;5.22;2.28;;;20.50;93.80;;;;;;4964413;28;20051;-81
2023/08/05 11:28:35;;;;;;;6.13;2.33;;;20.50;93.50;;;;;;4967142;28;20034;-81
2023/08/05 11:31:02;;;;;;;5.35;2.58;;;20.50;93.30;;;;;;4974593;28;20068;-81
2023/08/05 11:33:28;;;;;;;5.35;2.60;;;20.50;93.80;;;;;;4961080;28;20047;-80
2023/08/05 11:35:54;;;;;;;5.47;2.40;;;20.60;93.50;;;;;;4964424;28;20074;-81
2023/08/05 11:38:22;;;;;;;4.05;2.13;;;20.60;93.50;;;;;;4975745;28;20042;-81
2023/08/05 11:40:50;;;;;;;5.72;2.75;;;20.60;94.40;;;;;;4970949;28;20046;-81
2023/08/05 11:43:21;;;;;;;8.30;2.72;;;20.60;93.90;;;;;;5007090;28;20060;-81
2023/08/05 11:45:48;;;;;;;5.45;2.22;;;20.60;93.50;;;;;;5000921;28;20081;-81
2023/08/05 11:48:25;;;;;;;6.30;2.45;;;20.60;94.00;;;;;;5014542;28;20057;-81
2023/08/05 11:50:59;;;;;;;5.10;2.30;;;20.60;93.80;;;;;;5008355;28;20365;-81
2023/08/05 11:53:26;;;;;;;5.53;2.10;;;20.60;93.60;;;;;;5013485;28;20116;-80
2023/08/05 11:55:53;;;;;;;7.60;2.67;;;20.60;93.80;;;;;;5014242;28;20038;-81
2023/08/05 11:58:21;;;;;;;9.40;3.00;;;20.60;93.80;;;;;;5014364;28;20089;-81
2023/08/05 12:00:48;;;;;;;9.13;3.17;;;20.60;93.60;;;;;;5014556;28;20128;-81
2023/08/05 12:03:14;;;;;;;5.45;2.55;;;20.70;93.60;;;;;;5014994;28;20387;-81
2023/08/05 12:05:44;;;;;;;8.02;4.28;;;20.70;94.60;;;;;;5014578;28;20572;-83
2023/08/05 12:08:11;;;;;;;6.38;3.47;;;20.70;94.30;;;;;;5013566;28;20056;-83
2023/08/05 12:10:38;;;;;;;6.35;3.30;;;20.60;95.00;;;;;;5014247;28;20046;-83
2023/08/05 12:13:09;;;;;;;6.38;4.50;;;20.60;95.60;;;;;;5013756;28;20396;-84
2023/08/05 12:15:36;;;;;;;6.53;3.88;;;20.60;95.50;;;;;;5011856;28;20049;-83
2023/08/05 12:18:07;;;;;;;6.70;4.25;;;20.70;96.00;;;;;;4994966;28;20073;-83
2023/08/05 12:20:53;;;;;;;6.03;3.40;;;20.70;96.20;;;;;;5007600;28;20042;-82
2023/08/05 12:23:19;;;;;;;5.85;3.70;;;20.70;96.50;;;;;;5014390;28;20050;-83
2023/08/05 12:25:45;;;;;;;7.25;4.15;;;20.70;97.00;;;;;;5013492;28;20499;-83
2023/08/05 12:28:11;;;;;;;9.13;5.63;;;20.80;96.80;;;;;;5013662;28;20046;-83
2023/08/05 12:30:37;;;;;;;7.38;5.05;;;20.80;96.50;;;;;;5013623;28;20416;-83
2023/08/05 12:33:03;;;;;;;8.25;5.03;;;20.80;96.30;;;;;;5013998;28;20488;-83
2023/08/05 12:35:28;;;;;;;8.20;5.03;;;20.80;96.30;;;;;;5013820;28;20053;-82
2023/08/05 12:37:54;;;;;;;7.63;5.05;;;20.80;96.30;;;;;;5013770;28;20045;-82
2023/08/05 12:40:20;;;;;;;5.80;4.00;;;20.90;96.40;;;;;;5014042;28;20141;-83
2023/08/05 12:42:45;;;;;;;7.43;5.15;;;20.90;97.00;;;;;;5012961;28;20085;-82
2023/08/05 12:45:11;;;;;;;7.90;5.45;;;20.90;96.50;;;;;;5013751;28;20046;-82
2023/08/05 12:47:38;;;;;;;9.75;5.30;;;21.00;96.30;;;;;;5014038;28;20049;-82